createdAt,value
2018-09-20T00:02:01.604Z,16.19
2018-09-20T00:04:29.961Z,16.23
2018-09-20T00:06:58.838Z,16.26
2018-09-20T00:09:27.164Z,16.27
2018-09-20T00:11:55.509Z,16.22
2018-09-20T00:14:23.866Z,16.17
2018-09-20T00:16:52.381Z,16.15
2018-09-20T00:19:20.921Z,16.06
2018-09-20T00:21:50.115Z,16.04
2018-09-20T00:24:18.734Z,16.08
2018-09-20T00:26:47.156Z,16.07
2018-09-20T00:29:15.733Z,16.02
2018-09-20T00:31:44.034Z,16.00
2018-09-20T00:34:12.554Z,16.06
2018-09-20T00:36:40.963Z,15.99
2018-09-20T00:39:10.968Z,16.03
2018-09-20T00:41:39.514Z,16.08
2018-09-20T00:44:08.265Z,16.01
2018-09-20T00:46:36.586Z,15.95
2018-09-20T00:49:04.900Z,15.99
2018-09-20T00:51:33.377Z,15.93
2018-09-20T00:54:02.224Z,15.91
2018-09-20T00:56:30.827Z,15.91
2018-09-20T00:59:00.046Z,15.92
2018-09-20T01:01:28.425Z,15.88
2018-09-20T01:04:00.537Z,15.92
2018-09-20T01:06:33.891Z,15.75
2018-09-20T01:09:02.328Z,15.72
2018-09-20T01:11:30.692Z,15.70
2018-09-20T01:13:59.115Z,15.88
2018-09-20T01:16:27.412Z,15.81
2018-09-20T01:18:55.765Z,15.82
2018-09-20T01:21:24.162Z,15.75
2018-09-20T01:23:52.487Z,15.75
2018-09-20T01:26:20.888Z,15.85
2018-09-20T01:28:49.377Z,15.88
2018-09-20T01:31:17.663Z,15.85
2018-09-20T01:33:45.942Z,15.86
2018-09-20T01:36:14.535Z,15.91
2018-09-20T01:38:42.892Z,15.93
2018-09-20T01:41:11.206Z,15.90
2018-09-20T01:43:39.487Z,15.73
2018-09-20T01:46:07.827Z,15.68
2018-09-20T01:48:36.183Z,15.62
2018-09-20T01:51:04.507Z,15.54
2018-09-20T01:53:32.838Z,15.48
2018-09-20T01:56:01.186Z,15.51
2018-09-20T01:58:29.474Z,15.42
2018-09-20T02:00:57.796Z,15.55
2018-09-20T02:03:26.174Z,15.67
2018-09-20T02:05:54.778Z,15.70
2018-09-20T02:08:23.292Z,15.69
2018-09-20T02:10:51.816Z,15.68
2018-09-20T02:13:20.127Z,15.63
2018-09-20T02:15:49.188Z,15.58
2018-09-20T02:18:17.652Z,15.57
2018-09-20T02:20:45.974Z,15.42
2018-09-20T02:23:14.323Z,15.41
2018-09-20T02:25:43.485Z,15.37
2018-09-20T02:28:11.803Z,15.59
2018-09-20T02:30:40.199Z,15.64
2018-09-20T02:33:08.585Z,15.68
2018-09-20T02:35:36.953Z,15.53
2018-09-20T02:38:05.398Z,15.51
2018-09-20T02:40:34.079Z,15.46
2018-09-20T02:43:02.469Z,15.40
2018-09-20T02:45:30.791Z,15.37
2018-09-20T02:47:59.138Z,15.31
2018-09-20T02:50:27.468Z,15.28
2018-09-20T02:52:55.896Z,15.20
2018-09-20T02:55:24.474Z,15.20
2018-09-20T02:57:52.853Z,15.26
2018-09-20T03:00:21.331Z,15.28
2018-09-20T03:02:49.794Z,15.23
2018-09-20T03:05:18.291Z,15.12
2018-09-20T03:07:46.901Z,15.08
2018-09-20T03:10:15.495Z,15.04
2018-09-20T03:12:44.069Z,14.91
2018-09-20T03:15:12.403Z,14.93
2018-09-20T03:17:40.758Z,14.95
2018-09-20T03:20:09.462Z,14.91
2018-09-20T03:22:38.100Z,14.86
2018-09-20T03:25:06.512Z,14.86
2018-09-20T03:27:34.830Z,14.80
2018-09-20T03:30:03.101Z,14.79
2018-09-20T03:32:31.482Z,14.78
2018-09-20T03:34:59.738Z,14.75
2018-09-20T03:37:28.241Z,14.72
2018-09-20T03:39:56.556Z,14.68
2018-09-20T03:42:25.183Z,14.68
2018-09-20T03:44:53.683Z,14.69
2018-09-20T03:47:22.006Z,14.67
2018-09-20T03:49:50.550Z,14.64
2018-09-20T03:52:18.878Z,14.61
2018-09-20T03:54:47.636Z,14.63
2018-09-20T03:57:16.098Z,14.62
2018-09-20T03:59:44.404Z,14.58
2018-09-20T04:05:08.219Z,14.59
2018-09-20T04:07:36.543Z,14.58
2018-09-20T04:10:04.951Z,14.61
2018-09-20T04:12:33.327Z,14.50
2018-09-20T04:15:01.955Z,14.47
2018-09-20T04:17:30.312Z,14.48
2018-09-20T04:19:58.650Z,14.43
2018-09-20T04:22:27.140Z,14.41
2018-09-20T04:24:55.453Z,14.48
2018-09-20T04:27:23.791Z,14.43
2018-09-20T04:29:52.133Z,14.38
2018-09-20T04:32:20.518Z,14.40
2018-09-20T04:34:48.885Z,14.35
2018-09-20T04:37:17.217Z,14.35
2018-09-20T04:39:45.531Z,14.28
2018-09-20T04:42:13.873Z,14.29
2018-09-20T04:44:42.311Z,14.35
2018-09-20T04:47:10.947Z,14.30
2018-09-20T04:49:45.957Z,14.35
2018-09-20T04:52:14.458Z,14.29
2018-09-20T04:54:42.771Z,14.33
2018-09-20T04:57:11.130Z,14.35
2018-09-20T04:59:39.484Z,14.31
2018-09-20T05:02:07.978Z,14.35
2018-09-20T05:04:36.886Z,14.38
2018-09-20T05:07:05.239Z,14.36
2018-09-20T05:09:33.611Z,14.46
2018-09-20T05:12:02.463Z,14.53
2018-09-20T05:14:30.762Z,14.56
2018-09-20T05:16:59.306Z,14.54
2018-09-20T05:19:27.644Z,14.44
2018-09-20T05:21:55.994Z,14.48
2018-09-20T05:24:26.659Z,14.58
2018-09-20T05:26:56.259Z,14.60
2018-09-20T05:29:24.581Z,14.55
2018-09-20T05:31:52.911Z,14.64
2018-09-20T05:34:21.791Z,14.63
2018-09-20T05:36:50.467Z,14.69
2018-09-20T05:39:18.832Z,14.72
2018-09-20T05:41:47.467Z,14.73
2018-09-20T05:44:15.804Z,14.68
2018-09-20T05:46:44.508Z,14.69
2018-09-20T05:49:13.622Z,14.73
2018-09-20T05:51:41.998Z,14.86
2018-09-20T05:54:11.362Z,15.04
2018-09-20T05:56:40.169Z,15.08
2018-09-20T05:59:09.300Z,15.12
2018-09-20T06:01:38.379Z,15.14
2018-09-20T06:04:07.660Z,15.20
2018-09-20T06:06:36.823Z,15.26
2018-09-20T06:09:07.552Z,15.43
2018-09-20T06:11:35.874Z,15.49
2018-09-20T06:14:04.420Z,15.60
2018-09-20T06:16:33.002Z,15.67
2018-09-20T06:19:01.342Z,15.75
2018-09-20T06:21:29.686Z,15.74
2018-09-20T06:23:58.008Z,15.85
2018-09-20T06:26:27.643Z,15.90
2018-09-20T06:28:57.308Z,16.13
2018-09-20T06:31:25.814Z,16.41
2018-09-20T06:33:54.483Z,16.57
2018-09-20T06:36:22.850Z,16.56
2018-09-20T06:38:51.179Z,16.43
2018-09-20T06:41:20.412Z,16.45
2018-09-20T06:43:51.345Z,16.52
2018-09-20T06:46:21.853Z,16.54
2018-09-20T06:48:50.556Z,16.66
2018-09-20T06:51:21.230Z,16.76
2018-09-20T06:53:49.893Z,17.00
2018-09-20T06:56:18.843Z,17.23
2018-09-20T06:58:48.162Z,17.37
2018-09-20T07:01:16.950Z,17.42
2018-09-20T07:03:46.454Z,17.54
2018-09-20T07:06:14.987Z,17.89
2018-09-20T07:08:43.493Z,18.11
2018-09-20T07:11:12.187Z,18.44
2018-09-20T07:13:40.577Z,18.58
2018-09-20T07:16:09.974Z,18.82
2018-09-20T07:18:38.699Z,18.93
2018-09-20T07:21:07.057Z,19.08
2018-09-20T07:23:35.694Z,19.25
2018-09-20T07:26:04.027Z,19.38
2018-09-20T07:28:32.479Z,19.59
2018-09-20T07:31:00.796Z,19.72
2018-09-20T07:33:29.151Z,19.86
2018-09-20T07:35:57.563Z,20.07
2018-09-20T07:38:25.981Z,20.17
2018-09-20T07:40:54.499Z,20.34
2018-09-20T07:43:22.926Z,20.40
2018-09-20T07:45:51.450Z,20.61
2018-09-20T07:48:20.062Z,20.61
2018-09-20T07:50:48.523Z,20.71
2018-09-20T07:53:17.089Z,20.63
2018-09-20T07:55:45.615Z,20.85
2018-09-20T07:58:14.403Z,21.12
2018-09-20T08:00:45.111Z,21.05
2018-09-20T08:03:16.892Z,21.22
2018-09-20T08:05:45.734Z,21.37
2018-09-20T08:11:20.042Z,21.64
2018-09-20T08:13:54.975Z,21.70
2018-09-20T08:16:23.455Z,21.64
2018-09-20T08:18:52.171Z,21.67
2018-09-20T08:21:20.542Z,21.73
2018-09-20T08:23:48.875Z,21.79
2018-09-20T08:26:18.400Z,21.96
2018-09-20T08:28:46.910Z,22.21
2018-09-20T08:31:15.317Z,22.25
2018-09-20T08:33:43.633Z,22.39
2018-09-20T08:36:11.949Z,22.58
2018-09-20T08:38:40.273Z,22.52
2018-09-20T08:41:08.832Z,22.72
2018-09-20T08:43:37.700Z,22.66
2018-09-20T08:46:08.103Z,22.68
2018-09-20T08:48:36.466Z,22.82
2018-09-20T08:51:04.917Z,22.71
2018-09-20T08:53:33.201Z,22.64
2018-09-20T08:56:03.065Z,22.80
2018-09-20T08:58:33.108Z,22.93
2018-09-20T09:01:08.582Z,22.83
2018-09-20T09:03:37.224Z,22.87
2018-09-20T09:06:05.824Z,22.99
2018-09-20T09:08:34.188Z,23.12
2018-09-20T09:11:02.818Z,23.12
2018-09-20T09:13:31.249Z,23.35
2018-09-20T09:15:59.846Z,23.44
2018-09-20T09:18:28.231Z,23.41
2018-09-20T09:20:56.558Z,23.53
2018-09-20T09:23:25.092Z,23.70
2018-09-20T09:25:53.468Z,23.64
2018-09-20T09:28:22.259Z,23.88
2018-09-20T09:30:50.871Z,24.32
2018-09-20T09:33:19.474Z,24.24
2018-09-20T09:35:48.931Z,24.51
2018-09-20T09:38:18.215Z,24.61
2018-09-20T09:40:46.712Z,24.24
2018-09-20T09:43:15.137Z,24.34
2018-09-20T09:45:43.552Z,24.26
2018-09-20T09:48:12.040Z,24.35
2018-09-20T09:50:40.679Z,24.16
2018-09-20T09:53:10.330Z,24.23
2018-09-20T09:55:38.713Z,24.25
2018-09-20T09:58:07.052Z,24.15
2018-09-20T10:00:37.304Z,24.43
2018-09-20T10:03:05.783Z,24.59
2018-09-20T10:05:34.650Z,24.76
2018-09-20T10:08:03.033Z,24.99
2018-09-20T10:10:31.393Z,25.10
2018-09-20T10:12:59.754Z,25.26
2018-09-20T10:15:28.395Z,24.99
2018-09-20T10:17:56.708Z,25.22
2018-09-20T10:20:25.064Z,25.50
2018-09-20T10:22:54.401Z,25.37
2018-09-20T10:25:22.735Z,25.43
2018-09-20T10:27:51.582Z,25.34
2018-09-20T10:30:20.982Z,25.55
2018-09-20T10:32:49.603Z,25.47
2018-09-20T10:35:18.014Z,25.45
2018-09-20T10:37:46.368Z,25.46
2018-09-20T10:40:14.786Z,25.41
2018-09-20T10:42:43.835Z,25.57
2018-09-20T10:45:12.707Z,25.50
2018-09-20T10:47:41.664Z,25.21
2018-09-20T10:50:10.314Z,25.65
2018-09-20T10:52:38.797Z,25.79
2018-09-20T10:55:07.186Z,25.91
2018-09-20T10:57:35.603Z,26.01
2018-09-20T11:00:03.953Z,25.92
2018-09-20T11:02:33.687Z,26.23
2018-09-20T11:05:03.059Z,26.08
2018-09-20T11:07:32.439Z,26.49
2018-09-20T11:10:00.803Z,26.74
2018-09-20T11:12:30.006Z,26.82
2018-09-20T11:14:58.706Z,28.19
2018-09-20T11:17:28.147Z,28.98
2018-09-20T11:19:56.579Z,29.24
2018-09-20T11:22:24.930Z,29.63
2018-09-20T11:24:54.198Z,30.10
2018-09-20T11:27:22.721Z,30.82
2018-09-20T11:29:51.313Z,29.89
2018-09-20T11:32:19.839Z,30.62
2018-09-20T11:34:48.152Z,30.53
2018-09-20T11:37:17.582Z,30.67
2018-09-20T11:39:45.912Z,30.76
2018-09-20T11:42:15.203Z,30.91
2018-09-20T11:44:44.077Z,32.17
2018-09-20T11:47:12.507Z,31.64
2018-09-20T11:49:41.555Z,33.08
2018-09-20T11:52:10.061Z,33.20
2018-09-20T11:54:38.592Z,32.20
2018-09-20T11:57:07.999Z,30.72
2018-09-20T11:59:36.726Z,30.12
2018-09-20T12:02:05.803Z,29.74
2018-09-20T12:04:35.160Z,30.17
2018-09-20T12:07:03.540Z,29.79
2018-09-20T12:09:33.700Z,29.45
2018-09-20T12:12:03.169Z,29.35
2018-09-20T12:14:31.535Z,28.92
2018-09-20T12:17:00.666Z,28.64
2018-09-20T12:19:29.204Z,28.64
2018-09-20T12:21:57.684Z,28.56
2018-09-20T12:24:25.994Z,28.70
2018-09-20T12:26:54.421Z,28.78
2018-09-20T12:29:22.768Z,28.70
2018-09-20T12:31:51.279Z,29.03
2018-09-20T12:34:19.701Z,29.03
2018-09-20T12:36:48.116Z,29.71
2018-09-20T12:39:17.430Z,29.25
2018-09-20T12:41:45.828Z,29.82
2018-09-20T12:44:14.522Z,30.59
2018-09-20T12:46:43.898Z,30.75
2018-09-20T12:49:12.397Z,31.64
2018-09-20T12:51:40.807Z,32.86
2018-09-20T12:54:13.746Z,35.62
2018-09-20T12:56:43.115Z,36.22
2018-09-20T12:59:12.177Z,37.30
2018-09-20T13:01:41.320Z,37.28
2018-09-20T13:04:11.251Z,36.19
2018-09-20T13:06:40.308Z,38.47
2018-09-20T13:09:10.987Z,37.94
2018-09-20T13:11:39.493Z,37.35
2018-09-20T13:14:08.168Z,37.79
2018-09-20T13:16:36.627Z,38.76
2018-09-20T13:19:05.458Z,38.23
2018-09-20T13:21:33.895Z,39.74
2018-09-20T13:24:02.205Z,38.28
2018-09-20T13:26:30.728Z,38.74
2018-09-20T13:28:59.491Z,37.30
2018-09-20T13:31:28.051Z,37.87
2018-09-20T13:33:56.372Z,40.18
2018-09-20T13:36:24.796Z,39.16
2018-09-20T13:38:53.231Z,37.82
2018-09-20T13:41:21.678Z,38.86
2018-09-20T13:43:50.280Z,38.41
2018-09-20T13:46:19.522Z,36.85
2018-09-20T13:48:47.863Z,38.27
2018-09-20T13:51:16.267Z,38.73
2018-09-20T13:53:45.095Z,38.39
2018-09-20T13:56:15.647Z,35.68
2018-09-20T13:58:50.355Z,32.25
2018-09-20T14:01:18.920Z,31.26
2018-09-20T14:03:49.448Z,31.57
2018-09-20T14:06:19.978Z,31.05
2018-09-20T14:08:48.754Z,30.95
2018-09-20T14:11:17.152Z,31.05
2018-09-20T14:13:47.557Z,30.41
2018-09-20T14:16:16.253Z,30.48
2018-09-20T14:18:44.819Z,30.26
2018-09-20T14:21:13.226Z,29.99
2018-09-20T14:23:42.159Z,29.81
2018-09-20T14:26:10.581Z,29.97
2018-09-20T14:28:39.026Z,29.68
2018-09-20T14:31:08.029Z,29.82
2018-09-20T14:33:36.400Z,29.58
2018-09-20T14:36:05.208Z,29.53
2018-09-20T14:38:34.001Z,29.56
2018-09-20T14:41:02.380Z,29.50
2018-09-20T14:43:31.634Z,29.53
2018-09-20T14:46:00.848Z,29.47
2018-09-20T14:48:29.392Z,29.33
2018-09-20T14:50:58.340Z,29.23
2018-09-20T14:53:27.744Z,29.16
2018-09-20T14:55:57.371Z,29.09
2018-09-20T14:58:27.283Z,29.06
2018-09-20T15:00:56.207Z,29.07
2018-09-20T15:03:25.333Z,29.08
2018-09-20T15:05:53.819Z,29.01
2018-09-20T15:08:23.165Z,28.97
2018-09-20T15:10:51.781Z,28.96
2018-09-20T15:13:21.538Z,28.91
2018-09-20T15:15:49.931Z,28.76
2018-09-20T15:18:20.631Z,28.76
2018-09-20T15:20:49.596Z,28.76
2018-09-20T15:23:18.141Z,28.65
2018-09-20T15:25:47.154Z,28.41
2018-09-20T15:28:15.653Z,28.30
2018-09-20T15:30:45.839Z,28.23
2018-09-20T15:33:14.882Z,28.13
2018-09-20T15:35:44.044Z,28.22
2018-09-20T15:38:13.416Z,28.24
2018-09-20T15:40:42.305Z,28.10
2018-09-20T15:43:10.766Z,28.08
2018-09-20T15:45:39.599Z,28.19
2018-09-20T15:48:08.622Z,27.98
2018-09-20T15:50:38.933Z,27.61
2018-09-20T15:53:07.350Z,27.80
2018-09-20T15:55:35.726Z,27.69
2018-09-20T15:58:07.841Z,27.74
2018-09-20T16:00:38.366Z,27.78
2018-09-20T16:03:07.006Z,27.67
2018-09-20T16:05:35.696Z,27.45
2018-09-20T16:08:05.369Z,27.39
2018-09-20T16:10:33.772Z,27.61
2018-09-20T16:13:02.253Z,27.44
2018-09-20T16:15:30.665Z,27.10
2018-09-20T16:17:59.207Z,27.09
2018-09-20T16:20:27.928Z,27.15
2018-09-20T16:22:56.725Z,27.06
2018-09-20T16:25:26.079Z,26.92
2018-09-20T16:27:58.329Z,26.41
2018-09-20T16:30:40.971Z,26.20
2018-09-20T16:34:03.175Z,26.44
2018-09-20T16:36:48.755Z,26.38
2018-09-20T16:39:20.819Z,25.88
2018-09-20T16:41:53.543Z,25.56
2018-09-20T16:47:01.249Z,25.10
2018-09-20T16:49:29.869Z,24.98
2018-09-20T16:51:59.146Z,24.72
2018-09-20T16:54:27.510Z,24.74
2018-09-20T16:56:55.937Z,24.71
2018-09-20T16:59:25.188Z,24.57
2018-09-20T17:01:54.081Z,24.44
2018-09-20T17:04:24.439Z,24.16
2018-09-20T17:06:53.515Z,23.95
2018-09-20T17:09:22.457Z,23.67
2018-09-20T17:11:50.968Z,23.49
2018-09-20T17:14:19.334Z,23.54
2018-09-20T17:16:47.766Z,23.48
2018-09-20T17:19:16.418Z,23.17
2018-09-20T17:21:45.078Z,22.87
2018-09-20T17:24:14.430Z,22.72
2018-09-20T17:26:44.057Z,22.61
2018-09-20T17:29:12.982Z,22.56
2018-09-20T17:31:41.320Z,22.49
2018-09-20T17:34:14.725Z,22.35
2018-09-20T17:36:43.840Z,22.08
2018-09-20T17:39:14.884Z,22.01
2018-09-20T17:41:45.656Z,21.91
2018-09-20T17:44:14.239Z,21.91
2018-09-20T17:46:44.082Z,21.79
2018-09-20T17:49:12.914Z,21.67
2018-09-20T17:51:42.041Z,21.58
2018-09-20T17:54:10.851Z,21.45
2018-09-20T17:56:40.278Z,21.42
2018-09-20T17:59:09.163Z,21.40
2018-09-20T18:01:40.400Z,21.35
2018-09-20T18:04:10.427Z,21.35
2018-09-20T18:06:39.167Z,21.28
2018-09-20T18:09:11.025Z,21.24
2018-09-20T18:11:40.719Z,21.09
2018-09-20T18:14:09.839Z,20.99
2018-09-20T18:16:41.015Z,20.90
2018-09-20T18:19:09.597Z,20.92
2018-09-20T18:21:38.198Z,20.79
2018-09-20T18:24:09.735Z,20.70
2018-09-20T18:26:38.819Z,20.62
2018-09-20T18:29:08.654Z,20.51
2018-09-20T18:31:37.916Z,20.67
2018-09-20T18:34:07.258Z,20.77
2018-09-20T18:36:36.287Z,20.70
2018-09-20T18:39:07.947Z,20.49
2018-09-20T18:41:37.399Z,20.42
2018-09-20T18:44:06.890Z,20.42
2018-09-20T18:46:35.315Z,20.32
2018-09-20T18:50:06.794Z,20.21
2018-09-20T18:52:36.496Z,20.08
2018-09-20T18:55:05.287Z,19.97
2018-09-20T18:57:33.687Z,19.92
2018-09-20T19:00:03.709Z,19.95
2018-09-20T19:02:33.651Z,19.93
2018-09-20T19:05:10.722Z,19.84
2018-09-20T19:07:39.440Z,19.91
2018-09-20T19:10:14.255Z,19.89
2018-09-20T19:12:42.799Z,19.80
2018-09-20T19:15:12.216Z,19.75
2018-09-20T19:17:41.327Z,19.77
2018-09-20T19:20:09.991Z,19.65
2018-09-20T19:22:38.900Z,19.60
2018-09-20T19:25:08.343Z,19.52
2018-09-20T19:27:37.794Z,19.55
2018-09-20T19:30:07.294Z,19.57
2018-09-20T19:32:36.288Z,19.54
2018-09-20T19:35:05.158Z,19.49
2018-09-20T19:37:34.289Z,19.41
2018-09-20T19:40:03.801Z,19.21
2018-09-20T19:42:32.556Z,19.15
2018-09-20T19:45:02.303Z,19.13
2018-09-20T19:47:31.758Z,18.90
2018-09-20T19:50:00.426Z,18.90
2018-09-20T19:52:29.124Z,18.96
2018-09-20T19:54:59.855Z,18.87
2018-09-20T19:57:28.654Z,18.81
2018-09-20T19:59:57.073Z,18.69
2018-09-20T20:02:25.816Z,18.58
2018-09-20T20:04:54.802Z,18.50
2018-09-20T20:07:24.598Z,18.48
2018-09-20T20:09:53.148Z,18.41
2018-09-20T20:12:21.939Z,18.34
2018-09-20T20:14:51.709Z,18.32
2018-09-20T20:17:20.059Z,18.46
2018-09-20T20:19:49.654Z,18.47
2018-09-20T20:22:18.629Z,18.26
2018-09-20T20:24:46.977Z,18.24
2018-09-20T20:27:15.457Z,18.18
2018-09-20T20:29:44.181Z,18.02
2018-09-20T20:32:13.027Z,17.95
2018-09-20T20:34:42.538Z,18.01
2018-09-20T20:37:11.713Z,17.96
2018-09-20T20:39:41.692Z,17.91
2018-09-20T20:42:12.400Z,17.78
2018-09-20T20:44:41.744Z,17.88
2018-09-20T20:47:11.423Z,17.83
2018-09-20T20:49:40.909Z,17.73
2018-09-20T20:52:10.760Z,17.69
2018-09-20T20:54:39.404Z,17.64
2018-09-20T20:57:07.739Z,17.55
2018-09-20T20:59:36.704Z,17.65
2018-09-20T21:02:06.610Z,17.53
2018-09-20T21:04:35.812Z,17.43
2018-09-20T21:07:04.295Z,17.40
2018-09-20T21:09:32.731Z,17.26
2018-09-20T21:12:01.071Z,17.34
2018-09-20T21:14:30.193Z,17.05
2018-09-20T21:16:58.561Z,17.07
2018-09-20T21:19:26.895Z,17.06
2018-09-20T21:21:55.232Z,17.04
2018-09-20T21:24:24.516Z,16.97
2018-09-20T21:26:53.050Z,16.90
2018-09-20T21:29:21.466Z,16.88
2018-09-20T21:31:50.378Z,16.75
2018-09-20T21:34:18.657Z,16.74
2018-09-20T21:36:55.560Z,16.78
2018-09-20T21:39:28.074Z,16.72
2018-09-20T21:41:56.757Z,16.61
2018-09-20T21:44:25.190Z,16.63
2018-09-20T21:46:54.767Z,16.71
2018-09-20T21:49:27.053Z,16.57
2018-09-20T21:51:55.562Z,16.53
2018-09-20T21:54:23.869Z,16.49
2018-09-20T21:56:52.693Z,16.47
2018-09-20T21:59:20.982Z,16.47
2018-09-20T22:01:54.887Z,16.33
2018-09-20T22:04:24.099Z,16.44
2018-09-20T22:06:53.314Z,16.27
2018-09-20T22:09:21.594Z,16.33
2018-09-20T22:11:49.992Z,16.26
2018-09-20T22:14:18.763Z,16.20
2018-09-20T22:16:48.424Z,16.24
2018-09-20T22:19:17.107Z,16.16
2018-09-20T22:21:45.525Z,16.10
2018-09-20T22:24:13.814Z,15.99
2018-09-20T22:26:42.121Z,16.06
2018-09-20T22:29:10.415Z,16.02
2018-09-20T22:31:39.210Z,15.93
2018-09-20T22:34:07.704Z,15.98
2018-09-20T22:36:36.140Z,15.87
2018-09-20T22:39:07.331Z,15.78
2018-09-20T22:41:35.867Z,15.67
2018-09-20T22:44:04.804Z,15.76
2018-09-20T22:46:33.218Z,15.78
2018-09-20T22:49:01.880Z,15.75
2018-09-20T22:51:30.232Z,15.76
2018-09-20T22:53:59.183Z,15.70
2018-09-20T22:56:27.534Z,15.75
2018-09-20T22:58:56.026Z,15.65
2018-09-20T23:01:25.417Z,15.61
2018-09-20T23:03:54.748Z,15.66
2018-09-20T23:06:23.131Z,15.53
2018-09-20T23:08:51.566Z,15.45
2018-09-20T23:11:20.438Z,15.57
2018-09-20T23:13:48.833Z,15.54
2018-09-20T23:16:17.178Z,15.61
2018-09-20T23:18:45.570Z,15.49
2018-09-20T23:21:13.882Z,15.39
2018-09-20T23:23:42.190Z,15.50
2018-09-20T23:26:10.506Z,15.35
2018-09-20T23:28:38.799Z,15.37
2018-09-20T23:31:07.327Z,15.28
2018-09-20T23:33:35.963Z,15.38
2018-09-20T23:36:04.279Z,15.25
2018-09-20T23:38:32.565Z,15.15
2018-09-20T23:41:00.910Z,15.30
2018-09-20T23:43:29.215Z,15.35
2018-09-20T23:45:58.316Z,15.18
2018-09-20T23:48:26.614Z,15.13
2018-09-20T23:51:57.664Z,15.13
2018-09-20T23:54:26.110Z,15.05
2018-09-20T23:56:54.683Z,15.01
2018-09-20T23:59:23.042Z,15.00
